Time;durP1;ratioP1;P1;durP2;ratioP2;P2;SDS_P1;SDS_P2;PMS_P1;PMS_P2;Temp;Humidity;BMP_temperature;BMP_pressure;BME280_temperature;BME280_humidity;BME280_pressure;Samples;Min_cycle;Max_cycle;Signal;HPM_P1;HPM_P2
2021/01/09 00:00:33;;;;;;;3.88;3.00;;;10.10;99.90;;;;;;4697438;30;20033;-78
2021/01/09 00:02:59;;;;;;;4.65;2.83;;;10.00;99.90;;;;;;4698695;30;20029;-78
2021/01/09 00:05:25;;;;;;;11.02;3.40;;;10.00;99.90;;;;;;4701962;30;20369;-78
2021/01/09 00:07:51;;;;;;;7.38;3.05;;;10.00;99.90;;;;;;4697643;30;20049;-78
2021/01/09 00:10:17;;;;;;;7.60;3.25;;;10.00;99.90;;;;;;4697726;30;20392;-78
2021/01/09 00:12:43;;;;;;;6.35;2.92;;;10.00;99.90;;;;;;4696692;30;20096;-78
2021/01/09 00:15:10;;;;;;;4.95;3.20;;;10.00;99.90;;;;;;4697566;30;20033;-78
2021/01/09 00:17:37;;;;;;;4.70;2.78;;;10.00;99.90;;;;;;4698827;30;20045;-78
2021/01/09 00:20:07;;;;;;;7.78;3.15;;;9.90;99.90;;;;;;4698709;30;20045;-78
2021/01/09 00:22:34;;;;;;;4.35;2.95;;;10.00;99.90;;;;;;4699203;30;20080;-78
2021/01/09 00:25:00;;;;;;;5.25;2.65;;;10.00;99.90;;;;;;4714359;30;20037;-78
2021/01/09 00:27:26;;;;;;;4.55;2.80;;;9.90;99.90;;;;;;4716236;30;20064;-77
2021/01/09 00:29:52;;;;;;;5.65;2.63;;;9.90;99.90;;;;;;4716205;30;20569;-77
2021/01/09 00:32:18;;;;;;;6.43;3.47;;;9.90;99.90;;;;;;4698949;30;20034;-78
2021/01/09 00:34:44;;;;;;;5.03;2.50;;;9.90;99.90;;;;;;4709903;30;20033;-78
2021/01/09 00:37:10;;;;;;;3.97;2.53;;;9.90;99.90;;;;;;4698961;30;20100;-78
2021/01/09 00:39:36;;;;;;;6.38;2.70;;;9.90;99.90;;;;;;4696865;30;20105;-78
2021/01/09 00:42:02;;;;;;;6.03;2.55;;;9.80;99.90;;;;;;4695251;30;20508;-78
2021/01/09 00:44:28;;;;;;;5.32;2.83;;;9.80;99.90;;;;;;4704580;30;20066;-78
2021/01/09 00:46:58;;;;;;;4.45;2.35;;;9.80;99.90;;;;;;4697773;30;20045;-78
2021/01/09 00:49:25;;;;;;;5.93;2.60;;;9.80;99.90;;;;;;4698044;30;20046;-78
2021/01/09 00:51:52;;;;;;;3.33;2.40;;;9.80;99.90;;;;;;4694847;30;20042;-77
2021/01/09 00:54:19;;;;;;;5.15;2.38;;;9.80;99.90;;;;;;4695138;30;20034;-78
2021/01/09 00:56:45;;;;;;;5.32;3.10;;;9.70;99.90;;;;;;4696031;30;20025;-78
2021/01/09 00:59:11;;;;;;;5.40;2.50;;;9.80;99.90;;;;;;4698145;30;20045;-77
2021/01/09 01:01:37;;;;;;;4.13;2.75;;;9.80;99.90;;;;;;4696530;30;20442;-78
2021/01/09 01:04:03;;;;;;;6.30;2.70;;;9.80;99.90;;;;;;4696088;30;20042;-78
2021/01/09 01:06:29;;;;;;;8.35;3.08;;;9.70;99.90;;;;;;4698296;30;20129;-78
2021/01/09 01:08:55;;;;;;;5.85;3.08;;;9.80;99.90;;;;;;4698098;30;20480;-78
2021/01/09 01:11:29;;;;;;;4.63;2.55;;;9.70;99.90;;;;;;4698036;30;20509;-78
2021/01/09 01:13:56;;;;;;;5.60;3.03;;;9.80;99.90;;;;;;4697651;30;20569;-78
2021/01/09 01:16:23;;;;;;;6.47;3.40;;;9.70;99.90;;;;;;4710379;30;20048;-78
2021/01/09 01:18:50;;;;;;;6.72;3.08;;;9.70;99.90;;;;;;4715303;30;20048;-78
2021/01/09 01:21:16;;;;;;;4.57;2.58;;;9.80;99.90;;;;;;4715505;30;20033;-78
2021/01/09 01:23:42;;;;;;;9.73;3.17;;;9.70;99.90;;;;;;4710234;30;20030;-78
2021/01/09 01:26:10;;;;;;;5.20;2.58;;;9.70;99.90;;;;;;4706035;30;20029;-78
2021/01/09 01:28:36;;;;;;;6.10;2.63;;;9.70;99.90;;;;;;4715354;30;20115;-78
2021/01/09 01:31:03;;;;;;;5.35;2.60;;;9.80;99.90;;;;;;4715154;30;20491;-78
2021/01/09 01:33:29;;;;;;;5.40;2.33;;;9.70;99.90;;;;;;4713068;30;20045;-78
2021/01/09 01:35:56;;;;;;;12.65;2.75;;;9.70;99.90;;;;;;4701815;30;20068;-78
2021/01/09 01:38:22;;;;;;;8.73;2.65;;;9.70;99.90;;;;;;4715155;30;20021;-78
2021/01/09 01:40:49;;;;;;;7.47;2.90;;;9.70;99.90;;;;;;4714911;30;20415;-77
2021/01/09 01:43:15;;;;;;;4.07;2.72;;;9.70;99.90;;;;;;4704790;30;20096;-78
2021/01/09 01:45:43;;;;;;;6.82;2.05;;;9.70;99.90;;;;;;4697948;30;20048;-78
2021/01/09 01:48:10;;;;;;;5.45;2.25;;;9.70;99.90;;;;;;4714705;30;20101;-77
2021/01/09 01:50:41;;;;;;;9.18;2.63;;;9.70;99.90;;;;;;4714963;30;20127;-78
2021/01/09 01:53:07;;;;;;;4.65;2.72;;;9.70;99.90;;;;;;4707958;30;20533;-78
2021/01/09 01:55:34;;;;;;;11.45;2.83;;;9.70;99.90;;;;;;4697449;30;20117;-78
2021/01/09 01:58:00;;;;;;;5.22;2.35;;;9.60;99.90;;;;;;4710997;30;20033;-78
2021/01/09 02:00:27;;;;;;;6.15;2.22;;;9.60;99.90;;;;;;4714666;30;20041;-79
2021/01/09 02:02:55;;;;;;;7.82;2.33;;;9.60;99.90;;;;;;4711735;30;20120;-78
2021/01/09 02:05:28;;;;;;;5.32;2.22;;;9.60;99.90;;;;;;4693762;30;20041;-78
2021/01/09 02:07:59;;;;;;;6.15;2.08;;;9.60;99.90;;;;;;4693838;30;20037;-79
2021/01/09 02:10:25;;;;;;;3.95;1.90;;;9.60;99.90;;;;;;4696474;30;20033;-78
2021/01/09 02:13:01;;;;;;;3.63;2.17;;;9.60;99.90;;;;;;4697107;30;20399;-78
2021/01/09 02:15:29;;;;;;;4.95;2.10;;;9.60;99.90;;;;;;4679776;30;20108;-78
2021/01/09 02:17:56;;;;;;;4.95;2.40;;;9.70;99.90;;;;;;4692427;30;20045;-78
2021/01/09 02:20:26;;;;;;;4.90;1.83;;;9.60;99.90;;;;;;4696681;30;20484;-78
2021/01/09 02:22:54;;;;;;;3.22;1.60;;;9.70;99.90;;;;;;4695983;30;20041;-78
2021/01/09 02:25:20;;;;;;;4.90;1.95;;;9.60;99.90;;;;;;4696988;30;20710;-78
2021/01/09 02:27:46;;;;;;;6.93;2.45;;;9.70;99.90;;;;;;4695724;30;20048;-78
2021/01/09 02:30:12;;;;;;;3.85;1.42;;;9.70;99.90;;;;;;4695762;30;20116;-78
2021/01/09 02:32:56;;;;;;;5.05;2.00;;;9.70;99.90;;;;;;4696832;30;20058;-78
2021/01/09 02:35:23;;;;;;;;;;;9.70;99.90;;;;;;4697673;30;20523;-78
2021/01/09 02:37:49;;;;;;;3.67;1.50;;;9.70;99.90;;;;;;4685765;30;19915;-78
2021/01/09 02:40:19;;;;;;;7.13;2.20;;;9.70;99.90;;;;;;4714237;30;20045;-78
2021/01/09 02:42:46;;;;;;;2.50;1.50;;;9.70;99.90;;;;;;4714186;30;20025;-78
2021/01/09 02:45:12;;;;;;;5.70;1.65;;;9.80;99.90;;;;;;4704772;30;20037;-78
2021/01/09 02:47:39;;;;;;;4.78;1.63;;;9.70;99.90;;;;;;4694397;30;20543;-78
2021/01/09 02:50:06;;;;;;;4.78;2.05;;;9.70;99.90;;;;;;4693926;30;20034;-78
2021/01/09 02:52:32;;;;;;;3.00;1.63;;;9.70;99.90;;;;;;4696241;30;20120;-78
2021/01/09 02:54:58;;;;;;;5.80;2.13;;;9.70;99.90;;;;;;4696824;30;20042;-77
2021/01/09 02:57:24;;;;;;;3.00;1.70;;;9.70;99.90;;;;;;4696680;30;20038;-78
2021/01/09 02:59:50;;;;;;;5.13;1.45;;;9.70;99.90;;;;;;4708835;30;20453;-78
2021/01/09 03:02:17;;;;;;;4.70;1.52;;;9.80;99.90;;;;;;4703326;30;20040;-78
2021/01/09 03:04:43;;;;;;;5.70;1.83;;;9.70;99.90;;;;;;4696802;30;20041;-78
2021/01/09 03:07:09;;;;;;;5.97;2.10;;;9.70;99.90;;;;;;4696923;30;20031;-78
2021/01/09 03:09:35;;;;;;;6.88;2.25;;;9.70;99.90;;;;;;4704709;30;20484;-78
2021/01/09 03:12:01;;;;;;;4.63;1.92;;;9.70;99.90;;;;;;4710243;30;20040;-78
2021/01/09 03:14:27;;;;;;;2.97;1.52;;;9.80;99.90;;;;;;4700214;30;20429;-78
2021/01/09 03:16:53;;;;;;;4.95;2.17;;;9.80;99.90;;;;;;4699751;30;20547;-78
2021/01/09 03:19:19;;;;;;;6.00;2.10;;;9.80;99.90;;;;;;4703221;30;20041;-78
2021/01/09 03:21:45;;;;;;;3.33;2.05;;;9.70;99.90;;;;;;4715845;30;20033;-78
2021/01/09 03:24:11;;;;;;;6.00;1.67;;;9.80;99.90;;;;;;4699798;30;20033;-78
2021/01/09 03:26:37;;;;;;;3.35;1.40;;;9.80;99.90;;;;;;4699616;30;20091;-79
2021/01/09 03:29:03;;;;;;;4.00;1.30;;;9.80;99.90;;;;;;4699797;30;20041;-78
2021/01/09 03:31:29;;;;;;;5.53;1.95;;;9.80;99.90;;;;;;4713279;30;20034;-78
2021/01/09 03:33:55;;;;;;;4.40;2.00;;;9.80;99.90;;;;;;4699599;30;20034;-78
2021/01/09 03:36:21;;;;;;;4.22;2.25;;;9.80;99.90;;;;;;4699380;30;20037;-78
2021/01/09 03:38:47;;;;;;;3.85;1.58;;;9.80;99.90;;;;;;4699465;30;20057;-78
2021/01/09 03:41:13;;;;;;;6.38;1.58;;;9.80;99.90;;;;;;4712296;30;20029;-78
2021/01/09 03:43:40;;;;;;;4.07;1.98;;;9.80;99.90;;;;;;4716727;30;20065;-78
2021/01/09 03:46:06;;;;;;;7.13;2.80;;;9.80;99.90;;;;;;4716836;30;20183;-79
2021/01/09 03:48:32;;;;;;;4.20;1.85;;;9.90;99.90;;;;;;4703203;30;20034;-78
2021/01/09 03:50:58;;;;;;;10.50;1.75;;;9.90;99.90;;;;;;4707236;30;20415;-78
2021/01/09 03:53:24;;;;;;;5.05;1.98;;;9.90;99.90;;;;;;4716886;30;20030;-79
2021/01/09 03:55:50;;;;;;;7.00;2.08;;;9.90;99.90;;;;;;4716624;30;20033;-78
2021/01/09 03:58:16;;;;;;;8.38;2.53;;;9.90;99.90;;;;;;4707224;30;20040;-78
2021/01/09 04:00:42;;;;;;;6.70;1.38;;;9.90;99.90;;;;;;4701839;30;20076;-78
2021/01/09 04:03:08;;;;;;;2.72;2.17;;;9.90;99.90;;;;;;4716687;30;20091;-78
2021/01/09 04:05:34;;;;;;;4.25;2.00;;;10.00;99.90;;;;;;4716525;30;20041;-79
2021/01/09 04:08:01;;;;;;;5.78;2.97;;;9.90;99.90;;;;;;4711534;30;20030;-78
2021/01/09 04:10:27;;;;;;;4.30;1.92;;;10.00;99.90;;;;;;4699157;30;20525;-78
2021/01/09 04:12:53;;;;;;;6.50;2.33;;;10.00;99.90;;;;;;4715529;30;20044;-78
2021/01/09 04:15:19;;;;;;;3.20;1.85;;;10.00;99.90;;;;;;4716070;30;20045;-78
2021/01/09 04:17:45;;;;;;;2.20;1.73;;;10.00;99.90;;;;;;4712082;30;20553;-78
2021/01/09 04:20:11;;;;;;;7.05;2.25;;;10.00;99.90;;;;;;4695615;30;20049;-78
2021/01/09 04:22:37;;;;;;;11.13;2.25;;;10.00;99.90;;;;;;4698494;30;20095;-78
2021/01/09 04:25:04;;;;;;;7.15;2.08;;;10.10;99.90;;;;;;4699004;30;20080;-78
2021/01/09 04:27:30;;;;;;;9.57;2.38;;;10.10;99.90;;;;;;4698751;30;20514;-79
2021/01/09 04:29:56;;;;;;;6.22;2.25;;;10.10;99.90;;;;;;4700458;30;20032;-78
2021/01/09 04:32:22;;;;;;;4.10;1.92;;;10.10;99.90;;;;;;4698980;30;20516;-78
2021/01/09 04:34:49;;;;;;;5.32;1.90;;;10.10;99.90;;;;;;4698591;30;20041;-77
2021/01/09 04:37:15;;;;;;;7.75;2.70;;;10.10;99.90;;;;;;4698794;30;20613;-78
2021/01/09 04:39:41;;;;;;;9.27;2.90;;;10.10;99.90;;;;;;4701238;30;20045;-78
2021/01/09 04:42:08;;;;;;;6.63;2.10;;;10.10;99.90;;;;;;4698431;30;20042;-78
2021/01/09 04:44:35;;;;;;;3.85;2.15;;;10.10;99.90;;;;;;4698578;30;20507;-78
2021/01/09 04:47:03;;;;;;;5.65;2.60;;;10.10;99.90;;;;;;4698514;30;20037;-79
2021/01/09 04:49:30;;;;;;;5.10;2.42;;;10.10;99.90;;;;;;4701422;30;20045;-78
2021/01/09 04:51:57;;;;;;;3.45;1.65;;;10.10;99.90;;;;;;4698507;30;20045;-78
2021/01/09 04:54:25;;;;;;;8.10;2.63;;;10.10;99.90;;;;;;4698488;30;20038;-79
2021/01/09 04:56:53;;;;;;;5.68;2.53;;;10.10;99.90;;;;;;4698425;30;20029;-78
2021/01/09 04:59:20;;;;;;;6.05;2.22;;;10.10;99.90;;;;;;4701198;30;20484;-79
2021/01/09 05:01:48;;;;;;;6.25;2.70;;;10.10;99.90;;;;;;4698184;30;20067;-78
2021/01/09 05:04:14;;;;;;;7.13;2.50;;;10.10;99.90;;;;;;4698245;30;20048;-77
2021/01/09 05:06:42;;;;;;;5.32;2.55;;;10.10;99.90;;;;;;4697101;30;20037;-78
2021/01/09 05:09:11;;;;;;;5.78;2.55;;;10.10;99.90;;;;;;4699280;30;20033;-78
2021/01/09 05:11:39;;;;;;;7.63;1.92;;;10.10;99.90;;;;;;4712478;30;20148;-78
2021/01/09 05:14:06;;;;;;;3.00;2.15;;;10.10;99.90;;;;;;4698329;30;20045;-78
2021/01/09 05:16:34;;;;;;;7.72;2.45;;;10.10;99.90;;;;;;4697956;30;20146;-78
2021/01/09 05:19:01;;;;;;;7.78;2.58;;;10.10;99.90;;;;;;4697883;30;20049;-78
2021/01/09 05:21:28;;;;;;;4.50;2.20;;;10.10;99.90;;;;;;4700953;30;20037;-78
2021/01/09 05:24:01;;;;;;;3.85;2.00;;;10.10;99.90;;;;;;4697641;30;20034;-77
2021/01/09 05:26:27;;;;;;;7.13;2.22;;;10.10;99.90;;;;;;4695306;30;20356;-78
2021/01/09 05:28:59;;;;;;;7.28;3.10;;;10.10;99.90;;;;;;4694179;30;20510;-77
2021/01/09 05:31:27;;;;;;;4.65;2.05;;;10.10;99.90;;;;;;4697261;30;20045;-78
2021/01/09 05:33:54;;;;;;;6.40;2.55;;;10.10;99.90;;;;;;4697213;30;20056;-78
2021/01/09 05:36:22;;;;;;;6.03;2.90;;;10.10;99.90;;;;;;4697989;30;20384;-77
2021/01/09 05:38:49;;;;;;;7.82;2.38;;;10.10;99.90;;;;;;4697757;30;20034;-77
2021/01/09 05:41:18;;;;;;;5.47;2.53;;;10.10;99.90;;;;;;4698099;30;20088;-77
2021/01/09 05:44:03;;;;;;;5.38;2.30;;;10.20;99.90;;;;;;4697552;30;20030;-78
2021/01/09 05:46:32;;;;;;;7.53;2.20;;;10.10;99.90;;;;;;4697211;30;20418;-77
2021/01/09 05:48:58;;;;;;;4.78;2.55;;;10.20;99.90;;;;;;4696232;30;20033;-78
2021/01/09 05:51:30;;;;;;;8.57;2.90;;;10.20;99.90;;;;;;4705058;30;20036;-77
2021/01/09 05:53:56;;;;;;;6.25;3.00;;;10.10;99.90;;;;;;4714656;30;20565;-77
2021/01/09 05:56:24;;;;;;;4.65;2.38;;;10.10;99.90;;;;;;4702279;30;20484;-77
2021/01/09 05:58:51;;;;;;;5.32;2.97;;;10.10;99.90;;;;;;4697076;30;20037;-77
2021/01/09 06:01:25;;;;;;;7.43;3.13;;;10.10;99.90;;;;;;4701770;30;20045;-77
2021/01/09 06:04:04;;;;;;;8.73;3.03;;;10.10;99.90;;;;;;4714714;30;20071;-77
2021/01/09 06:06:37;;;;;;;6.90;2.85;;;10.10;99.90;;;;;;4702986;30;20306;-77
2021/01/09 06:09:07;;;;;;;7.47;2.75;;;10.10;99.90;;;;;;4694181;30;20124;-77
2021/01/09 06:11:41;;;;;;;6.55;2.10;;;10.10;99.90;;;;;;4693208;30;20034;-77
2021/01/09 06:14:09;;;;;;;5.07;2.72;;;10.10;99.90;;;;;;4693425;30;20108;-77
2021/01/09 06:16:37;;;;;;;5.28;2.80;;;10.10;99.90;;;;;;4694741;30;20120;-77
2021/01/09 06:19:04;;;;;;;9.45;3.40;;;10.10;99.90;;;;;;4687799;30;20049;-77
2021/01/09 06:21:32;;;;;;;9.07;3.03;;;10.10;99.90;;;;;;4698229;30;20038;-77
2021/01/09 06:24:00;;;;;;;6.25;3.05;;;10.10;99.90;;;;;;4712744;30;20395;-77
2021/01/09 06:26:28;;;;;;;11.63;3.47;;;10.10;99.90;;;;;;4714398;30;20468;-77
2021/01/09 06:29:19;;;;;;;6.97;2.85;;;10.00;99.90;;;;;;4698759;30;20041;-78
2021/01/09 06:32:06;;;;;;;9.52;3.50;;;10.00;99.90;;;;;;4696489;30;20042;-77
2021/01/09 06:34:33;;;;;;;8.00;3.22;;;10.00;99.90;;;;;;4714136;30;20037;-78
2021/01/09 06:37:04;;;;;;;8.82;3.05;;;10.00;99.90;;;;;;4714108;30;20041;-77
2021/01/09 06:39:35;;;;;;;6.47;3.15;;;10.00;99.90;;;;;;4697954;30;20041;-77
2021/01/09 06:42:04;;;;;;;8.82;3.25;;;10.00;99.90;;;;;;4696797;30;20518;-77
2021/01/09 06:44:31;;;;;;;13.80;3.70;;;9.90;99.90;;;;;;4713702;30;20032;-77
2021/01/09 06:46:57;;;;;;;9.60;3.00;;;10.00;99.90;;;;;;4714119;30;20499;-77
2021/01/09 06:49:27;;;;;;;6.45;3.40;;;10.00;99.90;;;;;;4701733;30;20064;-78
2021/01/09 06:52:05;;;;;;;12.15;3.88;;;10.00;99.90;;;;;;4695717;30;20480;-75
2021/01/09 06:54:38;;;;;;;6.75;3.30;;;10.00;99.90;;;;;;4694843;30;20072;-77
2021/01/09 06:57:10;;;;;;;10.13;3.05;;;10.00;99.90;;;;;;4695572;30;20057;-75
2021/01/09 06:59:45;;;;;;;11.35;4.05;;;10.00;99.90;;;;;;4692803;30;20045;-81
2021/01/09 07:02:25;;;;;;;8.32;3.30;;;10.00;99.90;;;;;;4694719;30;20396;-81
2021/01/09 07:05:19;;;;;;;8.30;4.18;;;10.00;99.90;;;;;;4679599;30;20455;-81
2021/01/09 07:07:55;;;;;;;;;;;10.00;99.90;;;;;;4694333;30;20116;-81
2021/01/09 07:10:23;;;;;;;8.63;3.95;;;10.10;99.90;;;;;;4695314;30;20044;-80
2021/01/09 07:12:58;;;;;;;5.75;3.13;;;10.10;99.90;;;;;;4695296;30;20041;-80
2021/01/09 07:15:26;;;;;;;7.90;3.75;;;10.10;99.90;;;;;;4711458;30;20049;-80
2021/01/09 07:17:58;;;;;;;7.63;2.92;;;10.20;99.90;;;;;;4697033;30;20065;-80
2021/01/09 07:20:38;;;;;;;6.30;3.35;;;10.20;99.90;;;;;;4690646;30;20056;-79
2021/01/09 07:23:09;;;;;;;8.90;3.15;;;10.20;99.90;;;;;;4694258;30;20030;-80
2021/01/09 07:25:40;;;;;;;9.13;4.05;;;10.20;99.90;;;;;;4679567;30;20092;-80
2021/01/09 07:28:12;;;;;;;10.48;3.95;;;10.20;99.90;;;;;;4694908;30;20032;-80
2021/01/09 07:30:39;;;;;;;7.20;3.63;;;10.20;99.90;;;;;;4694761;30;20483;-80
2021/01/09 07:33:12;;;;;;;8.27;4.13;;;10.20;99.90;;;;;;4695538;30;20038;-80
2021/01/09 07:35:43;;;;;;;6.78;4.03;;;10.20;99.90;;;;;;4707338;30;20041;-79
2021/01/09 07:38:11;;;;;;;8.25;3.88;;;10.20;99.90;;;;;;4697770;30;20038;-80
2021/01/09 07:40:46;;;;;;;8.23;3.85;;;10.20;99.90;;;;;;4686617;30;20046;-80
2021/01/09 07:43:35;;;;;;;8.45;4.10;;;10.20;99.90;;;;;;4694778;30;20464;-79
2021/01/09 07:46:20;;;;;;;9.77;3.33;;;10.20;99.90;;;;;;4719899;30;20033;-81
2021/01/09 07:48:47;;;;;;;9.38;3.15;;;10.20;99.90;;;;;;4713655;30;20041;-81
2021/01/09 07:51:13;;;;;;;5.93;2.92;;;10.30;99.90;;;;;;4713964;30;20091;-79
2021/01/09 07:53:48;;;;;;;10.40;5.05;;;10.30;99.90;;;;;;4712247;30;20136;-81
2021/01/09 07:56:37;;;;;;;4.80;2.90;;;10.30;99.90;;;;;;4707670;30;20041;-80
2021/01/09 07:59:06;;;;;;;11.60;3.45;;;10.30;99.90;;;;;;4695786;30;20048;-79
2021/01/09 08:01:51;;;;;;;10.85;4.03;;;10.40;99.90;;;;;;4688478;30;20488;-80
2021/01/09 08:04:17;;;;;;;7.15;3.30;;;10.40;99.90;;;;;;4698228;30;20546;-79
2021/01/09 08:06:43;;;;;;;7.32;2.88;;;10.40;99.90;;;;;;4701009;30;20034;-80
2021/01/09 08:09:09;;;;;;;5.88;3.97;;;10.50;99.90;;;;;;4710802;30;20029;-79
2021/01/09 08:11:43;;;;;;;8.82;4.03;;;10.50;99.90;;;;;;4698876;30;20037;-80
2021/01/09 08:14:09;;;;;;;;;;;10.50;99.90;;;;;;4699646;30;20088;-80
2021/01/09 08:16:35;;;;;;;10.02;4.30;;;10.50;99.90;;;;;;4721699;30;19923;-80
2021/01/09 08:19:20;;;;;;;11.63;3.67;;;10.60;99.90;;;;;;4700991;30;20048;-79
2021/01/09 08:21:47;;;;;;;10.45;3.95;;;10.60;99.90;;;;;;4697815;30;20069;-80
2021/01/09 08:24:24;;;;;;;9.05;3.85;;;10.60;99.90;;;;;;4697958;30;20088;-80
2021/01/09 08:26:55;;;;;;;6.40;3.45;;;10.60;99.90;;;;;;4707929;30;20040;-79
2021/01/09 08:29:24;;;;;;;6.18;3.05;;;10.60;99.90;;;;;;4701620;30;20471;-80
2021/01/09 08:31:51;;;;;;;7.95;3.83;;;10.50;99.90;;;;;;4698666;30;20030;-80
2021/01/09 08:34:24;;;;;;;8.48;3.80;;;10.50;99.90;;;;;;4697886;30;20116;-80
2021/01/09 08:36:54;;;;;;;5.07;2.70;;;10.60;99.90;;;;;;4704034;30;20048;-80
2021/01/09 08:39:20;;;;;;;5.65;3.33;;;10.60;99.90;;;;;;4700146;30;20058;-80
2021/01/09 08:41:46;;;;;;;9.20;4.20;;;10.50;99.90;;;;;;4681513;30;20030;-80
2021/01/09 08:44:13;;;;;;;5.78;3.55;;;10.60;99.90;;;;;;4680338;30;20113;-80
2021/01/09 08:46:42;;;;;;;7.72;3.80;;;10.60;99.90;;;;;;4686456;30;20450;-80
2021/01/09 08:49:26;;;;;;;8.07;3.28;;;10.60;99.90;;;;;;4708669;30;20488;-80
2021/01/09 08:52:00;;;;;;;7.15;4.03;;;10.70;99.90;;;;;;4697199;30;20064;-80
2021/01/09 08:54:29;;;;;;;6.85;3.33;;;10.70;99.90;;;;;;4697109;30;20404;-80
2021/01/09 08:56:57;;;;;;;8.43;3.55;;;10.80;99.90;;;;;;4699137;30;20033;-80
2021/01/09 08:59:23;;;;;;;6.25;3.25;;;10.80;99.90;;;;;;4715660;30;20052;-80
2021/01/09 09:01:53;;;;;;;5.93;3.10;;;10.90;99.90;;;;;;4715534;30;20060;-79
2021/01/09 09:04:20;;;;;;;7.18;3.50;;;11.10;99.90;;;;;;4701211;30;20034;-79
2021/01/09 09:07:09;;;;;;;7.80;3.75;;;11.10;99.90;;;;;;4698416;30;20041;-79
2021/01/09 09:09:41;;;;;;;10.02;4.28;;;11.20;99.90;;;;;;4709754;30;20544;-80
2021/01/09 09:12:10;;;;;;;6.70;4.00;;;11.30;99.90;;;;;;4698052;30;20054;-80
2021/01/09 09:14:36;;;;;;;6.38;3.97;;;11.30;99.90;;;;;;4693369;30;20041;-80
2021/01/09 09:17:05;;;;;;;11.45;3.40;;;11.30;99.90;;;;;;4693802;30;20081;-80
2021/01/09 09:19:35;;;;;;;10.20;3.83;;;11.30;99.90;;;;;;4712804;30;20503;-80
2021/01/09 09:22:02;;;;;;;5.68;3.40;;;11.30;99.90;;;;;;4715412;30;20041;-80
2021/01/09 09:24:42;;;;;;;5.55;3.42;;;11.30;99.90;;;;;;4715096;30;20399;-80
2021/01/09 09:27:28;;;;;;;9.20;3.85;;;11.40;99.90;;;;;;4680600;30;20053;-80
2021/01/09 09:30:09;;;;;;;5.57;2.92;;;11.50;99.90;;;;;;4712068;30;20037;-80
2021/01/09 09:32:36;;;;;;;7.13;3.60;;;11.40;99.90;;;;;;4714005;30;20037;-79
2021/01/09 09:35:41;;;;;;;14.02;3.58;;;11.50;99.90;;;;;;4711874;30;20033;-80
2021/01/09 09:38:10;;;;;;;7.30;3.00;;;11.60;99.90;;;;;;4666635;30;20212;-80
2021/01/09 09:40:38;;;;;;;7.55;3.33;;;11.50;99.90;;;;;;4694978;30;20052;-80
2021/01/09 09:43:16;;;;;;;8.68;3.25;;;11.50;99.90;;;;;;4701911;30;20049;-79
2021/01/09 09:46:03;;;;;;;13.95;4.60;;;11.60;99.90;;;;;;4696223;30;20038;-80
2021/01/09 09:48:33;;;;;;;8.52;4.07;;;11.60;99.90;;;;;;4698462;30;20033;-80
2021/01/09 09:51:07;;;;;;;7.45;3.72;;;11.60;99.90;;;;;;4713334;30;20040;-80
2021/01/09 09:53:38;;;;;;;6.85;3.10;;;11.50;99.90;;;;;;4698933;30;20037;-80
2021/01/09 09:56:21;;;;;;;8.63;2.90;;;11.50;99.90;;;;;;4710739;30;20076;-80
2021/01/09 09:58:58;;;;;;;7.25;3.30;;;11.60;99.90;;;;;;4697001;30;20515;-80
2021/01/09 10:01:24;;;;;;;6.70;4.30;;;11.70;99.90;;;;;;4714824;30;20044;-79
2021/01/09 10:03:51;;;;;;;10.50;3.15;;;11.90;99.90;;;;;;4713630;30;20033;-79
2021/01/09 10:06:18;;;;;;;4.78;2.58;;;12.00;99.90;;;;;;4711712;30;20038;-80
2021/01/09 10:08:45;;;;;;;7.22;2.88;;;12.10;99.90;;;;;;4697239;30;20091;-80
2021/01/09 10:11:11;;;;;;;5.35;2.83;;;12.20;99.90;;;;;;4697043;30;20038;-79
2021/01/09 10:13:37;;;;;;;6.55;2.90;;;12.10;99.90;;;;;;4695699;30;20038;-80
2021/01/09 10:16:04;;;;;;;6.38;2.80;;;12.30;99.90;;;;;;4695891;30;20058;-80
2021/01/09 10:18:33;;;;;;;3.95;2.55;;;12.30;99.90;;;;;;4710077;30;20092;-80
2021/01/09 10:21:00;;;;;;;5.85;2.45;;;12.40;99.90;;;;;;4706729;30;20037;-80
2021/01/09 10:23:30;;;;;;;3.17;2.40;;;12.50;99.90;;;;;;4714422;30;20030;-81
2021/01/09 10:25:56;;;;;;;3.78;2.47;;;12.50;99.90;;;;;;4713862;30;20045;-80
2021/01/09 10:28:24;;;;;;;3.95;2.40;;;12.60;99.90;;;;;;4697069;30;20045;-80
2021/01/09 10:30:50;;;;;;;6.28;3.08;;;12.80;99.90;;;;;;4691825;30;20487;-80
2021/01/09 10:33:16;;;;;;;12.13;3.13;;;13.00;99.90;;;;;;4704313;30;20048;-80
2021/01/09 10:35:47;;;;;;;6.05;2.95;;;13.10;99.90;;;;;;4695095;30;20484;-79
2021/01/09 10:38:14;;;;;;;9.80;3.10;;;13.10;99.90;;;;;;4696553;30;20037;-80
2021/01/09 10:40:42;;;;;;;5.75;2.03;;;13.10;99.90;;;;;;4698357;30;20522;-80
2021/01/09 10:43:08;;;;;;;4.93;2.60;;;13.30;99.90;;;;;;4714577;30;20094;-80
2021/01/09 10:45:34;;;;;;;4.65;2.42;;;13.30;99.90;;;;;;4727531;30;20614;-80
2021/01/09 10:48:00;;;;;;;3.58;2.08;;;13.30;99.90;;;;;;4708927;30;20025;-80
2021/01/09 10:50:26;;;;;;;5.47;2.97;;;13.40;99.90;;;;;;4696604;30;20034;-80
2021/01/09 10:52:52;;;;;;;6.63;2.95;;;13.40;99.90;;;;;;4711886;30;20515;-80
2021/01/09 10:55:18;;;;;;;4.05;3.03;;;13.30;99.90;;;;;;4713920;30;20029;-80
2021/01/09 10:57:45;;;;;;;205.52;96.30;;;13.30;99.90;;;;;;4714324;30;20033;-81
2021/01/09 11:00:11;;;;;;;64.10;31.08;;;13.40;99.90;;;;;;4699436;30;20042;-80
2021/01/09 11:02:37;;;;;;;40.25;21.80;;;13.40;99.90;;;;;;4707262;30;20072;-80
2021/01/09 11:05:04;;;;;;;24.00;13.13;;;13.50;99.90;;;;;;4712607;30;20044;-79
2021/01/09 11:07:30;;;;;;;13.45;5.78;;;13.60;99.90;;;;;;4712907;30;20402;-80
2021/01/09 11:09:56;;;;;;;7.93;3.88;;;13.50;99.90;;;;;;4716728;30;20038;-81
2021/01/09 11:12:23;;;;;;;11.50;5.22;;;13.50;99.90;;;;;;4702550;30;20094;-80
2021/01/09 11:14:50;;;;;;;11.82;7.20;;;13.30;99.90;;;;;;4712619;30;20037;-80
2021/01/09 11:17:16;;;;;;;6.38;4.35;;;13.40;99.90;;;;;;4714164;30;20065;-80
2021/01/09 11:19:42;;;;;;;13.95;8.75;;;13.60;99.90;;;;;;4706832;30;20117;-80
2021/01/09 11:22:08;;;;;;;19.27;10.50;;;13.80;99.90;;;;;;4699769;30;20065;-80
2021/01/09 11:24:34;;;;;;;48.15;27.25;;;14.00;99.90;;;;;;4712679;30;20435;-80
2021/01/09 11:27:05;;;;;;;134.63;78.90;;;14.30;99.90;;;;;;4712805;30;20479;-80
2021/01/09 11:29:31;;;;;;;35.80;22.00;;;14.50;99.90;;;;;;4696988;30;20037;-80
2021/01/09 11:32:02;;;;;;;18.55;13.30;;;14.60;99.90;;;;;;4696333;30;20428;-79
2021/01/09 11:34:28;;;;;;;19.83;13.02;;;14.60;99.90;;;;;;4711233;30;20133;-79
2021/01/09 11:36:55;;;;;;;13.80;9.60;;;14.60;99.90;;;;;;4698450;30;20475;-80
2021/01/09 11:39:21;;;;;;;29.58;16.02;;;14.80;99.90;;;;;;4698394;30;20056;-79
2021/01/09 11:41:47;;;;;;;34.38;20.50;;;14.90;99.90;;;;;;4699580;30;20060;-80
2021/01/09 11:44:15;;;;;;;28.25;14.45;;;15.10;99.90;;;;;;4711194;30;20468;-79
2021/01/09 11:46:41;;;;;;;36.17;18.30;;;15.00;99.90;;;;;;4700362;30;20042;-79
2021/01/09 11:49:07;;;;;;;19.88;11.65;;;15.10;99.90;;;;;;4699602;30;20053;-79
2021/01/09 11:51:34;;;;;;;36.83;22.02;;;15.20;99.90;;;;;;4695945;30;20030;-79
2021/01/09 11:54:01;;;;;;;24.63;15.30;;;15.40;99.90;;;;;;4687451;30;20069;-79
2021/01/09 11:56:27;;;;;;;19.85;12.45;;;15.30;99.90;;;;;;4681261;30;20396;-80
2021/01/09 11:58:53;;;;;;;14.50;7.15;;;15.40;99.90;;;;;;4681995;30;20054;-80
2021/01/09 12:01:19;;;;;;;11.48;5.18;;;15.50;99.90;;;;;;4680876;30;20038;-79
2021/01/09 12:03:45;;;;;;;12.27;7.43;;;15.50;99.90;;;;;;4689343;30;20030;-80
2021/01/09 12:06:20;;;;;;;8.88;6.10;;;15.60;99.90;;;;;;4698915;30;20030;-80
2021/01/09 12:08:46;;;;;;;5.50;3.35;;;15.60;99.90;;;;;;4699249;30;20037;-79
2021/01/09 12:11:19;;;;;;;6.25;4.07;;;15.60;99.90;;;;;;4697865;30;20033;-79
2021/01/09 12:13:45;;;;;;;;;;;15.70;99.90;;;;;;4699913;30;20038;-76
2021/01/09 12:16:14;;;;;;;9.23;3.23;;;15.50;99.90;;;;;;4699153;30;20034;-92
2021/01/09 12:18:41;;;;;;;5.07;3.47;;;15.40;99.90;;;;;;4701592;30;20048;-88
2021/01/09 12:21:09;;;;;;;4.95;3.55;;;15.30;99.90;;;;;;4707332;30;20066;-86
2021/01/09 12:23:50;;;;;;;6.28;3.88;;;15.20;99.90;;;;;;4705993;30;20466;-86
2021/01/09 12:26:36;;;;;;;4.45;2.00;;;15.00;99.90;;;;;;4697788;30;20044;-86
2021/01/09 12:29:11;;;;;;;6.35;2.53;;;14.90;99.90;;;;;;4695708;30;20504;-86
2021/01/09 12:31:49;;;;;;;5.57;4.45;;;14.70;99.90;;;;;;4707046;30;20128;-87
2021/01/09 12:34:28;;;;;;;6.78;2.78;;;14.70;99.90;;;;;;4704525;30;20038;-84
2021/01/09 12:36:56;;;;;;;5.25;3.45;;;14.70;99.90;;;;;;4696367;30;20121;-81
2021/01/09 12:39:22;;;;;;;5.38;4.13;;;14.70;99.90;;;;;;4694390;30;20042;-80
2021/01/09 12:41:48;;;;;;;5.00;3.58;;;14.70;99.90;;;;;;4690257;30;20041;-82
2021/01/09 12:44:14;;;;;;;2.55;2.00;;;14.70;99.90;;;;;;4687472;30;20048;-81
2021/01/09 12:46:50;;;;;;;3.35;2.00;;;14.70;99.90;;;;;;4675432;30;20060;-81
2021/01/09 12:49:18;;;;;;;3.03;1.90;;;14.70;99.90;;;;;;4695711;30;20065;-82
2021/01/09 12:51:45;;;;;;;4.03;2.05;;;14.70;99.90;;;;;;4697229;30;20037;-83
2021/01/09 12:54:12;;;;;;;7.28;4.43;;;14.70;99.90;;;;;;4694470;30;20038;-82
2021/01/09 12:56:39;;;;;;;6.53;5.30;;;14.60;99.90;;;;;;4695568;30;20087;-84